Time;durP1;ratioP1;P1;durP2;ratioP2;P2;SDS_P1;SDS_P2;PMS_P1;PMS_P2;Temp;Humidity;BMP_temperature;BMP_pressure;BME280_temperature;BME280_humidity;BME280_pressure;Samples;Min_cycle;Max_cycle;Signal;HPM_P1;HPM_P2
2021/06/24 00:00:39;;;;;;;4.43;0.90;;;;;;;;;;4889007;29;20050;-59
2021/06/24 00:03:05;;;;;;;8.73;1.00;;;;;;;;;;4891743;29;20111;-59
2021/06/24 00:05:31;;;;;;;6.90;1.00;;;;;;;;;;4907994;29;20071;-58
2021/06/24 00:07:57;;;;;;;9.40;3.13;;;;;;;;;;4910434;29;20131;-58
2021/06/24 00:10:22;;;;;;;4.53;0.77;;;;;;;;;;4909964;29;20101;-59
2021/06/24 00:12:48;;;;;;;3.42;0.80;;;;;;;;;;4908945;29;20048;-58
2021/06/24 00:15:15;;;;;;;5.05;1.00;;;;;;;;;;4908320;29;20052;-58
2021/06/24 00:17:42;;;;;;;3.53;0.80;;;;;;;;;;4908993;29;20074;-58
2021/06/24 00:20:08;;;;;;;5.57;1.00;;;;;;;;;;4910915;29;20044;-56
2021/06/24 00:22:34;;;;;;;7.30;1.20;;;;;;;;;;4908358;29;20059;-58
2021/06/24 00:25:00;;;;;;;4.55;1.25;;;;;;;;;;4911188;29;20044;-57
2021/06/24 00:27:25;;;;;;;5.13;0.80;;;;;;;;;;4910344;29;20104;-58
2021/06/24 00:29:57;;;;;;;4.03;0.90;;;;;;;;;;4910687;29;20068;-58
2021/06/24 00:32:23;;;;;;;4.88;1.08;;;;;;;;;;4907175;29;20048;-58
2021/06/24 00:34:49;;;;;;;6.72;1.02;;;;;;;;;;4909462;29;20055;-59
2021/06/24 00:37:15;;;;;;;6.43;0.85;;;;;;;;;;4908373;29;20044;-57
2021/06/24 00:39:41;;;;;;;2.97;0.70;;;;;;;;;;4911197;29;20079;-59
2021/06/24 00:42:07;;;;;;;3.78;0.93;;;;;;;;;;4911507;29;20040;-58
2021/06/24 00:44:33;;;;;;;3.20;0.73;;;;;;;;;;4908472;29;20778;-58
2021/06/24 00:47:00;;;;;;;4.22;0.77;;;;;;;;;;4911453;29;20064;-58
2021/06/24 00:49:26;;;;;;;9.00;0.80;;;;;;;;;;4909190;29;20035;-58
2021/06/24 00:51:51;;;;;;;2.00;0.70;;;;;;;;;;4892844;29;21178;-59
2021/06/24 00:54:17;;;;;;;6.72;0.90;;;;;;;;;;4908089;29;20044;-59
2021/06/24 00:56:43;;;;;;;5.40;0.90;;;;;;;;;;4910525;29;20044;-58
2021/06/24 00:59:09;;;;;;;6.70;1.60;;;;;;;;;;4911689;29;20056;-59
2021/06/24 01:01:36;;;;;;;5.13;1.02;;;;;;;;;;4899920;29;20032;-58
2021/06/24 01:04:02;;;;;;;4.32;1.00;;;;;;;;;;4909415;29;20662;-58
2021/06/24 01:06:28;;;;;;;7.45;1.40;;;;;;;;;;4907167;29;20048;-56
2021/06/24 01:08:54;;;;;;;5.25;1.17;;;;;;;;;;4909038;29;20039;-56
2021/06/24 01:11:21;;;;;;;5.53;1.02;;;;;;;;;;4907786;29;20040;-58
2021/06/24 01:13:47;;;;;;;3.75;0.98;;;;;;;;;;4907126;29;20549;-57
2021/06/24 01:16:14;;;;;;;3.95;0.77;;;;;;;;;;4907534;29;20108;-57
2021/06/24 01:18:40;;;;;;;4.25;1.17;;;;;;;;;;4907908;29;20044;-59
2021/06/24 01:21:06;;;;;;;4.03;0.90;;;;;;;;;;4907188;29;20047;-59
2021/06/24 01:23:39;;;;;;;3.42;0.90;;;;;;;;;;4907655;29;20123;-58
2021/06/24 01:26:05;;;;;;;3.88;1.02;;;;;;;;;;4906830;29;20153;-59
2021/06/24 01:28:31;;;;;;;6.43;1.10;;;;;;;;;;4891577;29;21299;-57
2021/06/24 01:30:57;;;;;;;8.65;0.93;;;;;;;;;;4908684;29;20044;-59
2021/06/24 01:33:24;;;;;;;3.83;1.05;;;;;;;;;;4905790;29;20128;-57
2021/06/24 01:35:50;;;;;;;10.48;1.23;;;;;;;;;;4907384;29;20044;-56
2021/06/24 01:38:15;;;;;;;5.82;1.20;;;;;;;;;;4908814;29;20062;-58
2021/06/24 01:40:41;;;;;;;13.70;1.00;;;;;;;;;;4906136;29;20052;-58
2021/06/24 01:43:07;;;;;;;2.35;0.70;;;;;;;;;;4907465;29;20042;-58
2021/06/24 01:45:43;;;;;;;5.03;0.90;;;;;;;;;;4905519;29;20044;-58
2021/06/24 01:48:09;;;;;;;3.83;0.82;;;;;;;;;;4908225;29;20641;-58
2021/06/24 01:50:34;;;;;;;2.58;0.80;;;;;;;;;;4907783;29;20062;-57
2021/06/24 01:53:00;;;;;;;3.00;0.65;;;;;;;;;;4907768;29;20055;-56
2021/06/24 01:55:32;;;;;;;4.20;0.88;;;;;;;;;;4906598;29;20047;-58
2021/06/24 01:58:05;;;;;;;5.13;0.90;;;;;;;;;;4906982;29;20048;-57
2021/06/24 02:00:32;;;;;;;9.80;1.15;;;;;;;;;;4905730;29;20040;-58
2021/06/24 02:02:58;;;;;;;2.90;0.70;;;;;;;;;;4906030;29;21895;-56
2021/06/24 02:05:23;;;;;;;4.97;1.02;;;;;;;;;;4906868;29;20118;-58
2021/06/24 02:07:49;;;;;;;8.68;1.10;;;;;;;;;;4908071;29;20048;-61
2021/06/24 02:10:15;;;;;;;2.70;0.60;;;;;;;;;;4907328;29;20044;-62
2021/06/24 02:12:41;;;;;;;9.82;0.75;;;;;;;;;;4906056;29;20036;-62
2021/06/24 02:15:09;;;;;;;4.25;0.88;;;;;;;;;;4905558;29;20056;-61
2021/06/24 02:17:35;;;;;;;4.72;0.80;;;;;;;;;;4897131;29;20099;-61
2021/06/24 02:20:11;;;;;;;6.05;0.75;;;;;;;;;;4890648;29;20036;-61
2021/06/24 02:22:37;;;;;;;4.97;0.70;;;;;;;;;;4904254;29;20047;-62
2021/06/24 02:25:04;;;;;;;3.47;0.90;;;;;;;;;;4909703;29;20100;-64
2021/06/24 02:27:33;;;;;;;2.63;0.82;;;;;;;;;;4906824;29;20067;-62
2021/06/24 02:29:59;;;;;;;2.30;0.70;;;;;;;;;;4902829;29;20524;-62
2021/06/24 02:32:25;;;;;;;3.92;0.75;;;;;;;;;;4876910;29;20037;-59
2021/06/24 02:34:52;;;;;;;5.75;1.00;;;;;;;;;;4860220;29;20053;-59
2021/06/24 02:37:18;;;;;;;4.13;0.80;;;;;;;;;;4876703;29;20056;-61
2021/06/24 02:39:44;;;;;;;3.47;0.80;;;;;;;;;;4865941;29;20666;-60
2021/06/24 02:42:10;;;;;;;10.48;1.15;;;;;;;;;;4871544;29;20049;-63
2021/06/24 02:44:37;;;;;;;4.57;1.00;;;;;;;;;;4865079;29;20601;-61
2021/06/24 02:47:03;;;;;;;6.85;0.95;;;;;;;;;;4867125;29;20085;-61
2021/06/24 02:49:29;;;;;;;4.18;0.85;;;;;;;;;;4867683;29;20044;-61
2021/06/24 02:51:55;;;;;;;6.80;0.82;;;;;;;;;;4862145;29;20527;-61
2021/06/24 02:54:21;;;;;;;5.60;0.90;;;;;;;;;;4875455;29;20049;-61
2021/06/24 02:56:47;;;;;;;4.10;0.90;;;;;;;;;;4864614;29;20053;-60
2021/06/24 02:59:12;;;;;;;4.70;1.00;;;;;;;;;;4866110;29;20053;-60
2021/06/24 03:01:39;;;;;;;6.28;1.67;;;;;;;;;;4856300;29;20629;-61
2021/06/24 03:04:07;;;;;;;5.50;1.60;;;;;;;;;;4864708;29;20585;-60
2021/06/24 03:06:34;;;;;;;7.82;1.10;;;;;;;;;;4863706;29;20052;-60
2021/06/24 03:09:00;;;;;;;3.45;1.00;;;;;;;;;;4871695;29;20596;-60
2021/06/24 03:11:26;;;;;;;4.85;1.00;;;;;;;;;;4905565;29;20429;-60
2021/06/24 03:13:58;;;;;;;6.53;0.95;;;;;;;;;;4909064;29;20043;-61
2021/06/24 03:16:24;;;;;;;3.50;0.70;;;;;;;;;;4904332;29;20126;-61
2021/06/24 03:18:50;;;;;;;8.73;1.10;;;;;;;;;;4905512;29;20688;-60
2021/06/24 03:21:17;;;;;;;2.38;0.80;;;;;;;;;;4905961;29;20516;-60
2021/06/24 03:23:43;;;;;;;5.32;1.00;;;;;;;;;;4885857;29;20474;-61
2021/06/24 03:26:09;;;;;;;5.95;0.90;;;;;;;;;;4884200;29;20044;-62
2021/06/24 03:28:35;;;;;;;5.40;0.88;;;;;;;;;;4905165;29;20083;-59
2021/06/24 03:31:01;;;;;;;8.88;1.90;;;;;;;;;;4905581;29;20082;-59
2021/06/24 03:33:26;;;;;;;5.35;0.90;;;;;;;;;;4904854;29;20045;-58
2021/06/24 03:35:52;;;;;;;8.50;0.80;;;;;;;;;;4904642;29;20069;-59
2021/06/24 03:38:18;;;;;;;4.88;0.98;;;;;;;;;;4903571;29;20079;-61
2021/06/24 03:40:44;;;;;;;4.15;0.88;;;;;;;;;;4904800;29;20040;-59
2021/06/24 03:43:10;;;;;;;3.95;0.80;;;;;;;;;;4905828;29;20365;-60
2021/06/24 03:45:37;;;;;;;2.63;0.88;;;;;;;;;;4905304;29;20135;-59
2021/06/24 03:48:04;;;;;;;3.45;1.13;;;;;;;;;;4888033;29;20044;-59
2021/06/24 03:50:30;;;;;;;7.28;1.13;;;;;;;;;;4904593;29;20039;-60
2021/06/24 03:52:55;;;;;;;5.18;0.82;;;;;;;;;;4903374;29;20044;-60
2021/06/24 03:55:35;;;;;;;6.95;1.10;;;;;;;;;;4903437;29;20518;-61
2021/06/24 03:58:02;;;;;;;9.40;0.90;;;;;;;;;;4904206;29;20056;-59
2021/06/24 04:00:28;;;;;;;5.75;1.00;;;;;;;;;;4905489;29;20043;-63
2021/06/24 04:02:54;;;;;;;2.60;0.80;;;;;;;;;;4906261;29;20044;-60
2021/06/24 04:05:20;;;;;;;9.48;1.15;;;;;;;;;;4904984;29;20188;-59
2021/06/24 04:07:45;;;;;;;6.03;0.98;;;;;;;;;;4868733;29;20871;-58
2021/06/24 04:10:12;;;;;;;5.05;1.10;;;;;;;;;;4900614;29;20033;-57
2021/06/24 04:12:38;;;;;;;6.25;1.20;;;;;;;;;;4897453;29;20060;-56
2021/06/24 04:15:05;;;;;;;7.13;1.20;;;;;;;;;;4900874;29;20881;-56
2021/06/24 04:17:31;;;;;;;6.07;1.17;;;;;;;;;;4902076;29;20142;-58
2021/06/24 04:19:56;;;;;;;7.78;1.38;;;;;;;;;;4900239;29;20509;-58
2021/06/24 04:22:22;;;;;;;4.78;1.00;;;;;;;;;;4899534;29;20379;-58
2021/06/24 04:24:48;;;;;;;4.57;1.10;;;;;;;;;;4900619;29;20047;-57
2021/06/24 04:27:14;;;;;;;6.97;1.23;;;;;;;;;;4901933;29;20059;-59
2021/06/24 04:29:40;;;;;;;2.53;0.82;;;;;;;;;;4900587;29;20058;-58
2021/06/24 04:32:06;;;;;;;4.07;1.20;;;;;;;;;;4900567;29;20416;-57
2021/06/24 04:34:32;;;;;;;3.13;1.00;;;;;;;;;;4900415;29;20048;-57
2021/06/24 04:36:57;;;;;;;4.97;1.02;;;;;;;;;;4901774;29;20036;-57
2021/06/24 04:39:23;;;;;;;7.18;1.00;;;;;;;;;;4901241;29;20173;-58
2021/06/24 04:41:52;;;;;;;3.13;0.90;;;;;;;;;;4903004;29;20694;-58
2021/06/24 04:44:18;;;;;;;4.05;1.05;;;;;;;;;;4900876;29;20199;-57
2021/06/24 04:46:44;;;;;;;2.53;0.82;;;;;;;;;;4901685;29;20059;-58
2021/06/24 04:49:10;;;;;;;7.90;1.30;;;;;;;;;;4887034;29;20039;-56
2021/06/24 04:51:36;;;;;;;7.40;1.33;;;;;;;;;;4903935;29;20228;-57
2021/06/24 04:54:02;;;;;;;11.02;1.25;;;;;;;;;;4907317;29;20473;-58
2021/06/24 04:56:28;;;;;;;3.47;0.95;;;;;;;;;;4906943;29;20043;-56
2021/06/24 04:58:54;;;;;;;4.32;1.15;;;;;;;;;;4906605;29;20052;-59
2021/06/24 05:01:20;;;;;;;3.47;1.10;;;;;;;;;;4906858;29;20139;-58
2021/06/24 05:03:45;;;;;;;3.30;1.17;;;;;;;;;;4906176;29;20055;-58
2021/06/24 05:06:12;;;;;;;4.85;1.20;;;;;;;;;;4906347;29;20459;-58
2021/06/24 05:08:38;;;;;;;3.20;1.00;;;;;;;;;;4905381;29;20051;-57
2021/06/24 05:11:05;;;;;;;4.10;1.25;;;;;;;;;;4905877;29;20040;-57
2021/06/24 05:13:31;;;;;;;2.97;0.95;;;;;;;;;;4905227;29;20139;-57
2021/06/24 05:15:57;;;;;;;5.00;1.20;;;;;;;;;;4907183;29;20040;-57
2021/06/24 05:18:23;;;;;;;9.02;1.52;;;;;;;;;;4903896;29;20071;-57
2021/06/24 05:20:48;;;;;;;3.28;1.42;;;;;;;;;;4889776;29;20482;-57
2021/06/24 05:23:15;;;;;;;4.57;1.48;;;;;;;;;;4906027;29;20051;-57
2021/06/24 05:25:44;;;;;;;7.38;1.35;;;;;;;;;;4905385;29;20074;-57
2021/06/24 05:28:10;;;;;;;5.07;1.30;;;;;;;;;;4906155;29;20098;-57
2021/06/24 05:30:37;;;;;;;3.17;1.35;;;;;;;;;;4906029;29;20119;-57
2021/06/24 05:33:03;;;;;;;6.00;1.52;;;;;;;;;;4904948;29;20541;-57
2021/06/24 05:35:28;;;;;;;5.63;1.30;;;;;;;;;;4905627;29;20040;-57
2021/06/24 05:37:55;;;;;;;4.40;1.48;;;;;;;;;;4907127;29;20066;-57
2021/06/24 05:40:22;;;;;;;3.85;1.40;;;;;;;;;;4904916;29;20056;-58
2021/06/24 05:42:48;;;;;;;7.63;2.00;;;;;;;;;;4907830;29;20047;-58
2021/06/24 05:45:14;;;;;;;7.93;1.80;;;;;;;;;;4909508;29;20115;-57
2021/06/24 05:47:39;;;;;;;4.45;1.50;;;;;;;;;;4907775;29;20143;-57
2021/06/24 05:50:05;;;;;;;4.35;1.48;;;;;;;;;;4910242;29;20036;-58
2021/06/24 05:52:31;;;;;;;4.15;1.88;;;;;;;;;;4910342;29;20485;-58
2021/06/24 05:54:57;;;;;;;4.45;2.00;;;;;;;;;;4907541;29;20508;-59
2021/06/24 05:57:23;;;;;;;4.93;2.10;;;;;;;;;;4906845;29;20044;-58
2021/06/24 05:59:48;;;;;;;3.67;1.83;;;;;;;;;;4907280;29;20040;-58
2021/06/24 06:02:14;;;;;;;6.18;2.10;;;;;;;;;;4906385;29;20051;-56
2021/06/24 06:04:40;;;;;;;4.10;2.10;;;;;;;;;;4905033;29;20059;-57
2021/06/24 06:07:06;;;;;;;5.85;1.88;;;;;;;;;;4906645;29;20552;-57
2021/06/24 06:09:31;;;;;;;7.28;1.88;;;;;;;;;;4907109;29;20938;-58
2021/06/24 06:11:57;;;;;;;4.20;1.90;;;;;;;;;;4906648;29;20071;-59
2021/06/24 06:14:23;;;;;;;4.82;2.40;;;;;;;;;;4905226;29;20382;-56
2021/06/24 06:16:49;;;;;;;8.10;2.50;;;;;;;;;;4906400;29;20067;-58
2021/06/24 06:19:14;;;;;;;8.32;2.50;;;;;;;;;;4908475;29;20062;-58
2021/06/24 06:21:40;;;;;;;6.05;2.53;;;;;;;;;;4907137;29;20044;-57
2021/06/24 06:24:06;;;;;;;4.47;2.00;;;;;;;;;;4906462;29;20040;-57
2021/06/24 06:26:32;;;;;;;6.20;2.33;;;;;;;;;;4904687;29;20501;-58
2021/06/24 06:29:03;;;;;;;5.03;2.50;;;;;;;;;;4907168;29;20043;-56
2021/06/24 06:31:29;;;;;;;5.18;2.47;;;;;;;;;;4905698;29;20047;-57
2021/06/24 06:33:55;;;;;;;5.00;2.60;;;;;;;;;;4906118;29;20043;-57
2021/06/24 06:36:20;;;;;;;4.07;2.00;;;;;;;;;;4906858;29;20048;-56
2021/06/24 06:38:46;;;;;;;4.32;2.20;;;;;;;;;;4889511;29;20146;-59
2021/06/24 06:41:12;;;;;;;5.03;2.10;;;;;;;;;;4905553;29;20044;-59
2021/06/24 06:43:38;;;;;;;4.78;2.55;;;;;;;;;;4906539;29;20059;-58
2021/06/24 06:46:04;;;;;;;6.55;2.70;;;;;;;;;;4906797;29;20055;-58
2021/06/24 06:48:30;;;;;;;6.22;2.40;;;;;;;;;;4906486;29;20047;-56
2021/06/24 06:50:56;;;;;;;5.28;2.60;;;;;;;;;;4906650;29;20063;-58
2021/06/24 06:53:23;;;;;;;5.63;2.70;;;;;;;;;;4904272;29;20044;-58
2021/06/24 06:55:48;;;;;;;4.10;2.20;;;;;;;;;;4906332;29;20048;-58
2021/06/24 06:58:14;;;;;;;7.22;2.75;;;;;;;;;;4906033;29;20084;-57
2021/06/24 07:00:40;;;;;;;4.30;2.55;;;;;;;;;;4887815;29;20052;-57
2021/06/24 07:03:06;;;;;;;6.10;2.40;;;;;;;;;;4905520;29;20135;-57
2021/06/24 07:05:32;;;;;;;4.65;2.50;;;;;;;;;;4888872;29;20131;-58
2021/06/24 07:07:58;;;;;;;6.38;2.63;;;;;;;;;;4906310;29;20044;-58
2021/06/24 07:10:23;;;;;;;7.53;2.45;;;;;;;;;;4904354;29;20064;-58
2021/06/24 07:12:49;;;;;;;5.50;2.13;;;;;;;;;;4906111;29;20048;-56
2021/06/24 07:15:16;;;;;;;6.05;2.80;;;;;;;;;;4904884;29;20130;-58
2021/06/24 07:17:42;;;;;;;4.72;2.47;;;;;;;;;;4903997;29;20048;-58
2021/06/24 07:20:08;;;;;;;6.18;2.35;;;;;;;;;;4906535;29;20052;-57
2021/06/24 07:22:34;;;;;;;4.35;2.30;;;;;;;;;;4904761;29;20048;-57
2021/06/24 07:25:00;;;;;;;6.93;2.42;;;;;;;;;;4905185;29;20886;-58
2021/06/24 07:27:26;;;;;;;5.30;2.40;;;;;;;;;;4905145;29;20221;-58
2021/06/24 07:29:52;;;;;;;5.25;2.67;;;;;;;;;;4904977;29;20056;-58
2021/06/24 07:32:19;;;;;;;5.53;2.55;;;;;;;;;;4903729;29;20051;-56
2021/06/24 07:34:45;;;;;;;6.80;2.55;;;;;;;;;;4905455;29;20430;-58
2021/06/24 07:37:11;;;;;;;5.32;1.95;;;;;;;;;;4905630;29;20729;-58
2021/06/24 07:39:37;;;;;;;6.13;2.10;;;;;;;;;;4906447;29;20174;-59
2021/06/24 07:42:03;;;;;;;5.22;2.28;;;;;;;;;;4904975;29;20044;-58
2021/06/24 07:44:28;;;;;;;6.28;2.55;;;;;;;;;;4905302;29;20110;-59
2021/06/24 07:46:55;;;;;;;4.20;2.20;;;;;;;;;;4905922;29;20506;-59
2021/06/24 07:49:21;;;;;;;6.72;2.63;;;;;;;;;;4905819;29;20038;-58
2021/06/24 07:51:47;;;;;;;6.00;2.15;;;;;;;;;;4905587;29;20048;-58
2021/06/24 07:54:13;;;;;;;5.72;2.88;;;;;;;;;;4907217;29;20058;-55
2021/06/24 07:56:39;;;;;;;5.40;2.90;;;;;;;;;;4905941;29;20040;-59
2021/06/24 07:59:04;;;;;;;5.85;2.45;;;;;;;;;;4905943;29;20395;-58
2021/06/24 08:01:30;;;;;;;4.45;2.40;;;;;;;;;;4907370;29;20716;-58
2021/06/24 08:03:56;;;;;;;6.30;3.30;;;;;;;;;;4907320;29;20461;-57
2021/06/24 08:06:22;;;;;;;8.27;3.47;;;;;;;;;;4907779;29;20785;-59
2021/06/24 08:08:47;;;;;;;5.57;2.92;;;;;;;;;;4908145;29;20156;-57
2021/06/24 08:11:13;;;;;;;5.75;2.88;;;;;;;;;;4907338;29;20580;-59
2021/06/24 08:13:39;;;;;;;6.05;2.50;;;;;;;;;;4906129;29;20075;-58
2021/06/24 08:16:05;;;;;;;4.80;2.30;;;;;;;;;;4907722;29;20542;-58
2021/06/24 08:18:31;;;;;;;6.40;2.65;;;;;;;;;;4905870;29;20094;-59
2021/06/24 08:20:56;;;;;;;5.30;2.97;;;;;;;;;;4889621;29;20055;-58
2021/06/24 08:23:22;;;;;;;5.30;3.05;;;;;;;;;;4905598;29;20040;-59
2021/06/24 08:25:49;;;;;;;6.00;3.38;;;;;;;;;;4910162;29;20531;-58
2021/06/24 08:28:16;;;;;;;6.10;3.58;;;;;;;;;;4909361;29;20042;-58
2021/06/24 08:30:44;;;;;;;5.78;3.53;;;;;;;;;;4909714;29;20123;-59
2021/06/24 08:33:11;;;;;;;6.32;3.53;;;;;;;;;;4908550;29;20056;-59
2021/06/24 08:35:36;;;;;;;5.75;3.20;;;;;;;;;;4908036;29;20067;-58
2021/06/24 08:38:02;;;;;;;9.13;4.43;;;;;;;;;;4909866;29;20163;-58
2021/06/24 08:40:28;;;;;;;6.60;4.32;;;;;;;;;;4908503;29;20131;-57
2021/06/24 08:42:54;;;;;;;7.82;4.45;;;;;;;;;;4907056;29;20048;-58
2021/06/24 08:45:20;;;;;;;8.77;4.45;;;;;;;;;;4908277;29;20047;-59
2021/06/24 08:47:48;;;;;;;6.28;3.80;;;;;;;;;;4909361;29;20114;-59
2021/06/24 08:50:14;;;;;;;7.75;4.40;;;;;;;;;;4907802;29;20043;-59
2021/06/24 08:52:45;;;;;;;8.23;4.45;;;;;;;;;;4906535;29;20139;-57
2021/06/24 08:55:11;;;;;;;7.97;4.22;;;;;;;;;;4908416;29;20052;-58
2021/06/24 08:57:38;;;;;;;7.95;4.47;;;;;;;;;;4890417;29;20044;-57
2021/06/24 09:00:04;;;;;;;7.65;4.20;;;;;;;;;;4907584;29;20925;-56
2021/06/24 09:02:37;;;;;;;8.25;4.60;;;;;;;;;;4906595;29;20054;-58
2021/06/24 09:05:04;;;;;;;7.20;4.78;;;;;;;;;;4907711;29;20472;-57
2021/06/24 09:07:31;;;;;;;9.95;4.88;;;;;;;;;;4907191;29;20062;-56
2021/06/24 09:09:57;;;;;;;9.40;6.30;;;;;;;;;;4907353;29;20063;-56
2021/06/24 09:12:24;;;;;;;9.35;5.95;;;;;;;;;;4906880;29;20055;-56
2021/06/24 09:14:51;;;;;;;12.55;6.57;;;;;;;;;;4908489;29;20445;-57
2021/06/24 09:17:36;;;;;;;10.55;6.57;;;;;;;;;;4906803;29;20056;-58
2021/06/24 09:20:03;;;;;;;11.07;6.15;;;;;;;;;;4907623;29;20842;-56
2021/06/24 09:22:29;;;;;;;10.30;6.85;;;;;;;;;;4905684;29;20040;-56
2021/06/24 09:24:55;;;;;;;14.25;7.28;;;;;;;;;;4905874;29;20119;-56
2021/06/24 09:27:25;;;;;;;10.75;6.43;;;;;;;;;;4906632;29;20378;-58
2021/06/24 09:29:52;;;;;;;10.98;6.63;;;;;;;;;;4907499;29;20510;-56
2021/06/24 09:32:28;;;;;;;9.27;6.40;;;;;;;;;;4889200;29;20058;-57
2021/06/24 09:34:54;;;;;;;11.55;6.25;;;;;;;;;;4908436;29;20047;-57
2021/06/24 09:37:20;;;;;;;9.15;6.05;;;;;;;;;;4906002;29;20039;-56
2021/06/24 09:39:47;;;;;;;9.45;6.03;;;;;;;;;;4906843;29;20060;-57
2021/06/24 09:42:14;;;;;;;10.52;5.63;;;;;;;;;;4906166;29;20047;-56
2021/06/24 09:44:41;;;;;;;9.15;5.38;;;;;;;;;;4907257;29;20127;-56
2021/06/24 09:47:18;;;;;;;11.63;6.50;;;;;;;;;;4907007;29;20059;-58
2021/06/24 09:49:55;;;;;;;9.43;5.05;;;;;;;;;;4907319;29;20047;-56
2021/06/24 09:52:21;;;;;;;8.05;5.00;;;;;;;;;;4906437;29;20048;-59
2021/06/24 09:54:50;;;;;;;10.18;5.85;;;;;;;;;;4907349;29;20339;-58
2021/06/24 09:57:24;;;;;;;9.82;5.13;;;;;;;;;;4908395;29;20040;-57
2021/06/24 09:59:50;;;;;;;10.30;5.25;;;;;;;;;;4907341;29;20103;-58
2021/06/24 10:02:18;;;;;;;8.45;5.25;;;;;;;;;;4906826;29;20040;-56
2021/06/24 10:04:45;;;;;;;8.52;4.75;;;;;;;;;;4907033;29;22303;-57
2021/06/24 10:07:12;;;;;;;7.93;4.10;;;;;;;;;;4909718;29;20255;-58
2021/06/24 10:09:39;;;;;;;6.70;3.80;;;;;;;;;;4906437;29;20040;-57
2021/06/24 10:12:06;;;;;;;5.90;3.47;;;;;;;;;;4906469;29;20056;-57
2021/06/24 10:14:32;;;;;;;5.85;3.80;;;;;;;;;;4907718;29;21980;-57
2021/06/24 10:17:02;;;;;;;5.97;3.85;;;;;;;;;;4909302;29;20039;-58
2021/06/24 10:19:36;;;;;;;5.65;3.53;;;;;;;;;;4908887;29;20394;-57
2021/06/24 10:22:08;;;;;;;7.18;3.25;;;;;;;;;;4908432;29;20039;-55
2021/06/24 10:24:36;;;;;;;5.53;3.20;;;;;;;;;;4906429;29;20052;-58
2021/06/24 10:27:05;;;;;;;5.85;3.20;;;;;;;;;;4889733;29;20042;-57
2021/06/24 10:29:41;;;;;;;5.43;3.15;;;;;;;;;;4904811;29;20470;-58
2021/06/24 10:32:20;;;;;;;6.38;3.50;;;;;;;;;;4905873;29;20055;-57
2021/06/24 10:34:48;;;;;;;5.72;3.20;;;;;;;;;;4888605;29;20040;-56
2021/06/24 10:37:21;;;;;;;6.45;3.53;;;;;;;;;;4905515;29;20054;-55
2021/06/24 10:39:47;;;;;;;5.63;2.92;;;;;;;;;;4905205;29;20052;-56
2021/06/24 10:42:15;;;;;;;6.70;2.80;;;;;;;;;;4906064;29;20730;-58
2021/06/24 10:44:57;;;;;;;5.40;3.20;;;;;;;;;;4905165;29;20431;-56
2021/06/24 10:47:33;;;;;;;5.15;2.70;;;;;;;;;;4903869;29;20127;-57
2021/06/24 10:50:17;;;;;;;6.53;3.10;;;;;;;;;;4905824;29;20075;-56
2021/06/24 10:52:43;;;;;;;7.40;3.00;;;;;;;;;;4904174;29;20589;-54
2021/06/24 10:55:29;;;;;;;5.35;2.97;;;;;;;;;;4906366;29;20051;-57
2021/06/24 10:57:55;;;;;;;6.10;3.30;;;;;;;;;;4903499;29;20490;-56
2021/06/24 11:00:36;;;;;;;5.20;2.97;;;;;;;;;;4904654;29;20254;-57
2021/06/24 11:03:03;;;;;;;5.38;3.00;;;;;;;;;;4904152;29;20054;-57
2021/06/24 11:05:39;;;;;;;5.03;2.72;;;;;;;;;;4904786;29;20150;-56
2021/06/24 11:08:25;;;;;;;5.82;2.65;;;;;;;;;;4905261;29;20036;-56
2021/06/24 11:10:55;;;;;;;4.72;2.60;;;;;;;;;;4904237;29;20047;-57
2021/06/24 11:16:21;;;;;;;4.93;2.78;;;;;;;;;;4906989;29;20122;-56
2021/06/24 11:18:56;;;;;;;5.85;2.88;;;;;;;;;;4904129;29;20052;-56
2021/06/24 11:21:28;;;;;;;5.45;2.60;;;;;;;;;;4903438;29;20081;-55
2021/06/24 11:23:55;;;;;;;4.90;2.33;;;;;;;;;;4904556;29;20044;-55
2021/06/24 11:26:27;;;;;;;5.20;2.60;;;;;;;;;;4903633;29;20047;-57
2021/06/24 11:28:55;;;;;;;5.50;2.90;;;;;;;;;;4904824;29;20438;-56
2021/06/24 11:31:35;;;;;;;5.40;2.80;;;;;;;;;;4905455;29;20070;-56
2021/06/24 11:34:19;;;;;;;4.75;2.50;;;;;;;;;;4905228;29;20071;-57
2021/06/24 11:36:49;;;;;;;4.18;2.38;;;;;;;;;;4904381;29;20040;-55
2021/06/24 11:39:25;;;;;;;4.80;2.47;;;;;;;;;;4906486;29;20535;-57
2021/06/24 11:41:52;;;;;;;4.20;2.20;;;;;;;;;;4886558;29;20324;-57
2021/06/24 11:44:29;;;;;;;5.78;2.75;;;;;;;;;;4904033;29;20167;-57
2021/06/24 11:46:56;;;;;;;4.57;2.50;;;;;;;;;;4904845;29;20787;-56
2021/06/24 11:49:32;;;;;;;8.25;2.60;;;;;;;;;;4903488;29;20131;-57
2021/06/24 12:00:39;;;;;;;7.57;3.10;;;;;;;;;;4908622;29;20055;-58
2021/06/24 12:03:08;;;;;;;5.60;3.17;;;;;;;;;;4909210;29;20056;-58
2021/06/24 12:05:38;;;;;;;7.85;3.35;;;;;;;;;;4907222;29;20505;-59
2021/06/24 12:08:04;;;;;;;4.47;2.63;;;;;;;;;;4908511;29;20047;-58
2021/06/24 12:10:30;;;;;;;5.65;2.92;;;;;;;;;;4908202;29;20175;-58
2021/06/24 12:12:56;;;;;;;7.82;2.70;;;;;;;;;;4909682;29;20036;-56
2021/06/24 12:15:22;;;;;;;4.80;2.55;;;;;;;;;;4907560;29;20056;-59
2021/06/24 12:17:47;;;;;;;7.22;2.80;;;;;;;;;;4907628;29;20048;-58
2021/06/24 12:20:17;;;;;;;6.90;2.75;;;;;;;;;;4909025;29;20956;-59
2021/06/24 12:22:44;;;;;;;7.03;3.15;;;;;;;;;;4907930;29;20125;-58
2021/06/24 12:25:15;;;;;;;7.28;3.92;;;;;;;;;;4907625;29;20040;-59
2021/06/24 12:27:42;;;;;;;6.85;4.30;;;;;;;;;;4906655;29;20055;-61
2021/06/24 12:30:16;;;;;;;7.18;3.72;;;;;;;;;;4906955;29;20527;-63
2021/06/24 12:32:49;;;;;;;6.05;3.35;;;;;;;;;;4889633;29;20048;-63
2021/06/24 12:35:14;;;;;;;;;;;;;;;;;;4907042;29;20079;-63
2021/06/24 12:37:44;;;;;;;4.53;2.15;;;;;;;;;;4907987;29;20014;-63
2021/06/24 12:40:14;;;;;;;6.30;2.55;;;;;;;;;;4908188;29;20044;-62
2021/06/24 12:42:51;;;;;;;6.75;2.58;;;;;;;;;;4907844;29;20163;-61
2021/06/24 12:45:18;;;;;;;5.78;3.28;;;;;;;;;;4909549;29;20061;-62
2021/06/24 12:47:44;;;;;;;4.50;1.85;;;;;;;;;;4908774;29;20102;-62
2021/06/24 12:50:15;;;;;;;4.75;2.28;;;;;;;;;;4892166;29;20496;-63
2021/06/24 12:52:44;;;;;;;5.63;2.20;;;;;;;;;;4907203;29;20087;-62
2021/06/24 12:55:30;;;;;;;4.85;2.22;;;;;;;;;;4908826;29;20997;-62
2021/06/24 12:57:58;;;;;;;6.45;2.10;;;;;;;;;;4907399;29;20044;-60
2021/06/24 13:00:24;;;;;;;7.43;2.20;;;;;;;;;;4907732;29;20043;-60
2021/06/24 13:02:53;;;;;;;5.95;2.83;;;;;;;;;;4907157;29;20170;-57
2021/06/24 13:05:23;;;;;;;5.75;2.58;;;;;;;;;;4906871;29;20521;-61
2021/06/24 13:07:59;;;;;;;5.03;2.08;;;;;;;;;;4908207;29;20047;-61
2021/06/24 13:10:25;;;;;;;4.03;1.92;;;;;;;;;;4906696;29;20127;-62
2021/06/24 13:12:51;;;;;;;7.35;2.35;;;;;;;;;;4906146;29;20055;-62
2021/06/24 13:15:33;;;;;;;5.70;1.73;;;;;;;;;;4906525;29;20480;-62
2021/06/24 13:17:59;;;;;;;5.15;2.10;;;;;;;;;;4905564;29;20533;-60
2021/06/24 13:20:25;;;;;;;5.95;2.30;;;;;;;;;;4904309;29;20075;-62
2021/06/24 13:22:51;;;;;;;6.18;2.03;;;;;;;;;;4907259;29;20063;-61
2021/06/24 13:25:21;;;;;;;4.60;1.90;;;;;;;;;;4886828;29;20778;-61
2021/06/24 13:27:47;;;;;;;3.30;1.70;;;;;;;;;;4903850;29;20054;-61
2021/06/24 13:30:14;;;;;;;4.25;1.90;;;;;;;;;;4908590;29;20048;-60
2021/06/24 13:32:40;;;;;;;4.38;1.80;;;;;;;;;;4906692;29;20039;-60
2021/06/24 13:35:10;;;;;;;5.05;1.50;;;;;;;;;;4906536;29;20051;-61
2021/06/24 13:37:47;;;;;;;3.78;1.63;;;;;;;;;;4907751;29;20040;-61
2021/06/24 13:40:16;;;;;;;4.28;1.70;;;;;;;;;;4907056;29;20589;-59
2021/06/24 13:42:52;;;;;;;3.75;1.40;;;;;;;;;;4907389;29;20378;-59
2021/06/24 13:45:19;;;;;;;3.10;1.23;;;;;;;;;;4905037;29;20099;-58
2021/06/24 13:47:44;;;;;;;6.38;1.52;;;;;;;;;;4906555;29;20509;-58
2021/06/24 13:50:11;;;;;;;3.42;1.35;;;;;;;;;;4908432;29;20040;-58
2021/06/24 13:52:36;;;;;;;2.83;1.33;;;;;;;;;;4907487;29;20044;-57
2021/06/24 13:55:03;;;;;;;4.28;1.55;;;;;;;;;;4905686;29;20587;-55
2021/06/24 13:57:29;;;;;;;3.90;1.80;;;;;;;;;;4906860;29;20048;-57
2021/06/24 13:59:55;;;;;;;3.47;1.60;;;;;;;;;;4906700;29;20059;-57
2021/06/24 14:02:21;;;;;;;5.75;1.40;;;;;;;;;;4906044;29;20534;-60
2021/06/24 14:04:47;;;;;;;4.68;1.92;;;;;;;;;;4907711;29;20074;-57
2021/06/24 14:07:12;;;;;;;3.70;1.75;;;;;;;;;;4908383;29;20043;-59
2021/06/24 14:09:38;;;;;;;5.25;2.45;;;;;;;;;;4890120;29;20214;-58
2021/06/24 14:12:04;;;;;;;4.55;2.33;;;;;;;;;;4906999;29;20044;-59
2021/06/24 14:14:30;;;;;;;6.30;2.05;;;;;;;;;;4889170;29;20046;-58
2021/06/24 14:16:56;;;;;;;4.28;1.83;;;;;;;;;;4909284;29;20035;-58
2021/06/24 14:19:27;;;;;;;8.45;2.45;;;;;;;;;;4907072;29;20059;-58
2021/06/24 14:21:54;;;;;;;4.25;1.90;;;;;;;;;;4906526;29;20040;-59
2021/06/24 14:24:20;;;;;;;3.38;1.73;;;;;;;;;;4905502;29;20048;-59
2021/06/24 14:26:46;;;;;;;8.43;2.30;;;;;;;;;;4905934;29;20040;-56
2021/06/24 14:29:13;;;;;;;4.93;1.80;;;;;;;;;;4907575;29;20036;-58
2021/06/24 14:31:39;;;;;;;3.25;1.40;;;;;;;;;;4889271;29;20040;-57
2021/06/24 14:34:05;;;;;;;3.50;1.20;;;;;;;;;;4905476;29;20048;-59
2021/06/24 14:36:32;;;;;;;3.15;1.20;;;;;;;;;;4907877;29;20119;-57
2021/06/24 14:38:58;;;;;;;4.97;1.80;;;;;;;;;;4906908;29;20051;-58
2021/06/24 14:41:25;;;;;;;6.88;2.13;;;;;;;;;;4906704;29;20039;-57
2021/06/24 14:43:51;;;;;;;3.78;1.70;;;;;;;;;;4906864;29;20047;-56
2021/06/24 14:46:17;;;;;;;3.80;1.60;;;;;;;;;;4906788;29;20039;-57
2021/06/24 14:48:45;;;;;;;6.88;1.70;;;;;;;;;;4906532;29;20401;-57
2021/06/24 14:51:11;;;;;;;3.75;1.73;;;;;;;;;;4907539;29;20072;-57
2021/06/24 14:53:37;;;;;;;4.97;1.75;;;;;;;;;;4905019;29;20051;-58
2021/06/24 14:56:04;;;;;;;5.38;2.45;;;;;;;;;;4905301;29;20087;-58